createdAt,value
2019-03-13T00:00:03.716Z,90.50
2019-03-13T00:02:42.585Z,88.50
2019-03-13T00:05:19.225Z,87.00
2019-03-13T00:07:56.568Z,86.70
2019-03-13T00:10:33.105Z,86.70
2019-03-13T00:13:09.584Z,89.40
2019-03-13T00:15:49.545Z,88.30
2019-03-13T00:18:24.523Z,86.20
2019-03-13T00:21:01.168Z,85.50
2019-03-13T00:23:37.831Z,86.50
2019-03-13T00:26:15.152Z,87.80
2019-03-13T00:28:51.812Z,83.10
2019-03-13T00:31:28.381Z,84.70
2019-03-13T00:34:04.748Z,86.30
2019-03-13T00:36:41.742Z,85.00
2019-03-13T00:39:18.812Z,86.20
2019-03-13T00:41:56.057Z,82.00
2019-03-13T00:44:33.116Z,79.30
2019-03-13T00:47:09.833Z,83.40
2019-03-13T00:49:46.637Z,84.30
2019-03-13T00:52:22.875Z,82.60
2019-03-13T00:54:59.766Z,82.00
2019-03-13T00:57:36.561Z,78.10
2019-03-13T01:00:15.010Z,74.00
2019-03-13T01:02:51.633Z,81.40
2019-03-13T01:05:34.027Z,78.90
2019-03-13T01:08:10.919Z,78.50
2019-03-13T01:10:47.482Z,74.00
2019-03-13T01:13:24.336Z,72.20
2019-03-13T01:16:01.552Z,71.20
2019-03-13T01:18:38.243Z,76.70
2019-03-13T01:21:14.937Z,76.80
2019-03-13T01:23:52.403Z,71.10
2019-03-13T01:26:29.370Z,68.70
2019-03-13T01:29:05.612Z,67.00
2019-03-13T01:32:08.815Z,66.70
2019-03-13T01:34:50.894Z,69.40
2019-03-13T01:37:27.938Z,67.40
2019-03-13T01:40:04.350Z,68.70
2019-03-13T01:42:42.435Z,66.70
2019-03-13T01:45:19.102Z,65.10
2019-03-13T01:47:56.793Z,65.20
2019-03-13T01:50:33.547Z,65.40
2019-03-13T01:53:10.361Z,66.10
2019-03-13T01:55:48.625Z,65.90
2019-03-13T01:58:25.598Z,69.00
2019-03-13T02:01:02.606Z,68.60
2019-03-13T02:03:39.856Z,67.20
2019-03-13T02:06:16.641Z,67.30
2019-03-13T02:08:53.922Z,67.30
2019-03-13T02:11:31.044Z,66.30
2019-03-13T02:14:07.979Z,66.60
2019-03-13T02:16:44.875Z,64.30
2019-03-13T02:19:22.075Z,65.60
2019-03-13T02:21:58.651Z,64.90
2019-03-13T02:24:35.404Z,65.90
2019-03-13T02:27:12.108Z,67.00
2019-03-13T02:29:49.742Z,64.70
2019-03-13T02:32:26.675Z,60.60
2019-03-13T02:35:03.580Z,64.50
2019-03-13T02:37:41.345Z,62.10
2019-03-13T02:40:18.299Z,60.30
2019-03-13T02:42:54.986Z,61.30
2019-03-13T02:45:32.216Z,64.80
2019-03-13T02:48:08.926Z,59.10
2019-03-13T02:50:45.435Z,58.80
2019-03-13T02:53:22.104Z,58.90
2019-03-13T02:55:58.607Z,59.70
2019-03-13T02:58:35.356Z,59.60
2019-03-13T03:01:29.535Z,58.40
2019-03-13T03:04:08.765Z,59.10
2019-03-13T03:06:45.577Z,58.90
2019-03-13T03:09:22.205Z,58.30
2019-03-13T03:11:59.010Z,57.30
2019-03-13T03:14:36.115Z,56.90
2019-03-13T03:17:12.807Z,57.30
2019-03-13T03:19:49.594Z,57.70
2019-03-13T03:22:26.357Z,56.10
2019-03-13T03:25:03.505Z,56.10
2019-03-13T03:27:39.724Z,55.90
2019-03-13T03:30:19.223Z,55.90
2019-03-13T03:32:55.804Z,55.60
2019-03-13T03:35:32.603Z,55.40
2019-03-13T03:38:11.690Z,53.00
2019-03-13T03:40:48.249Z,51.60
2019-03-13T03:43:39.528Z,50.70
2019-03-13T03:46:02.507Z,47.20
2019-03-13T03:48:39.729Z,47.70
2019-03-13T03:51:17.633Z,48.40
2019-03-13T03:53:54.043Z,49.70
2019-03-13T03:56:31.094Z,49.00
2019-03-13T03:59:07.842Z,46.60
2019-03-13T04:01:44.808Z,45.60
2019-03-13T04:04:21.115Z,46.80
2019-03-13T04:06:59.611Z,46.10
2019-03-13T04:09:35.901Z,44.80
2019-03-13T04:12:14.054Z,46.40
2019-03-13T04:14:50.789Z,43.30
2019-03-13T04:17:27.527Z,43.60
2019-03-13T04:20:04.038Z,46.00
2019-03-13T04:22:41.723Z,46.40
2019-03-13T04:25:35.522Z,45.10
2019-03-13T04:28:13.080Z,42.80
2019-03-13T04:30:50.331Z,40.90
2019-03-13T04:33:28.377Z,39.10
2019-03-13T04:36:05.217Z,39.20
2019-03-13T04:38:41.779Z,41.30
2019-03-13T04:41:18.258Z,42.10
2019-03-13T04:43:56.463Z,41.90
2019-03-13T04:46:32.994Z,36.00
2019-03-13T04:49:10.574Z,37.00
2019-03-13T04:51:47.276Z,39.00
2019-03-13T04:54:24.457Z,38.00
2019-03-13T04:57:01.162Z,36.60
2019-03-13T04:59:37.759Z,35.40
2019-03-13T05:02:14.296Z,33.30
2019-03-13T05:04:51.498Z,35.20
2019-03-13T05:07:28.172Z,33.40
2019-03-13T05:10:04.544Z,34.00
2019-03-13T05:12:41.233Z,31.80
2019-03-13T05:15:17.863Z,30.90
2019-03-13T05:17:58.380Z,32.30
2019-03-13T05:20:35.166Z,31.20
2019-03-13T05:23:11.772Z,28.00
2019-03-13T05:25:52.126Z,28.90
2019-03-13T05:28:30.300Z,27.30
2019-03-13T05:31:07.194Z,28.80
2019-03-13T05:33:43.948Z,28.20
2019-03-13T05:36:20.834Z,27.90
2019-03-13T05:38:57.776Z,27.80
2019-03-13T05:41:34.849Z,28.50
2019-03-13T05:44:12.159Z,28.40
2019-03-13T05:46:49.343Z,28.00
2019-03-13T05:49:25.994Z,29.10
2019-03-13T05:52:02.876Z,26.90
2019-03-13T05:54:40.290Z,26.20
2019-03-13T05:57:16.964Z,27.00
2019-03-13T05:59:53.791Z,26.80
2019-03-13T06:02:30.842Z,25.30
2019-03-13T06:05:08.086Z,27.50
2019-03-13T06:07:45.527Z,26.50
2019-03-13T06:10:21.856Z,26.90
2019-03-13T06:12:58.969Z,25.50
2019-03-13T06:15:36.514Z,26.60
2019-03-13T06:18:13.673Z,26.80
2019-03-13T06:20:50.315Z,24.80
2019-03-13T06:23:27.490Z,25.10
2019-03-13T06:26:04.155Z,24.70
2019-03-13T06:28:42.473Z,23.80
2019-03-13T06:31:19.551Z,23.00
2019-03-13T06:33:57.125Z,23.90
2019-03-13T06:36:33.590Z,23.00
2019-03-13T06:39:11.011Z,23.70
2019-03-13T06:41:47.582Z,24.20
2019-03-13T06:44:24.419Z,23.90
2019-03-13T06:47:01.661Z,24.00
2019-03-13T06:49:38.301Z,23.60
2019-03-13T06:52:14.391Z,23.60
2019-03-13T06:54:51.940Z,23.20
2019-03-13T07:01:39.589Z,37.70
2019-03-13T07:04:46.972Z,48.00
2019-03-13T07:07:32.812Z,53.50
2019-03-13T07:10:17.659Z,55.60
2019-03-13T07:13:12.016Z,56.50
2019-03-13T07:16:12.962Z,56.70
2019-03-13T07:19:10.716Z,56.90
2019-03-13T07:22:14.530Z,57.00
2019-03-13T07:25:14.857Z,56.40
2019-03-13T07:28:09.770Z,55.40
2019-03-13T07:31:01.303Z,54.70
2019-03-13T07:33:54.959Z,53.90
2019-03-13T07:36:49.671Z,47.70
2019-03-13T07:39:48.413Z,43.20
2019-03-13T07:42:52.356Z,41.60
2019-03-13T07:45:42.276Z,40.80
2019-03-13T07:48:35.916Z,38.90
2019-03-13T07:51:30.766Z,38.50
2019-03-13T07:54:22.469Z,38.10
2019-03-13T07:57:24.420Z,37.30
2019-03-13T08:00:17.882Z,37.00
2019-03-13T08:03:12.861Z,36.00
2019-03-13T08:06:16.385Z,35.90
2019-03-13T08:09:09.671Z,35.60
2019-03-13T08:12:13.356Z,35.20
2019-03-13T08:15:06.948Z,35.90
2019-03-13T08:18:02.065Z,36.10
2019-03-13T08:21:02.881Z,35.90
2019-03-13T08:23:56.048Z,36.60
2019-03-13T08:26:40.571Z,35.80
2019-03-13T08:29:35.083Z,35.70
2019-03-13T08:32:28.757Z,35.60
2019-03-13T08:35:26.131Z,35.50
2019-03-13T08:38:08.344Z,35.30
2019-03-13T08:40:56.781Z,35.40
2019-03-13T08:43:49.846Z,34.80
2019-03-13T08:46:52.023Z,34.60
2019-03-13T08:49:52.841Z,34.00
2019-03-13T08:52:47.970Z,34.20
2019-03-13T08:55:42.802Z,33.90
2019-03-13T08:58:37.036Z,34.40
2019-03-13T09:01:29.824Z,33.90
2019-03-13T09:04:25.099Z,33.90
2019-03-13T09:07:22.778Z,33.80
2019-03-13T09:10:07.626Z,33.60
2019-03-13T09:12:53.916Z,33.90
2019-03-13T09:15:39.193Z,33.90
2019-03-13T09:18:24.619Z,32.90
2019-03-13T09:21:19.300Z,33.00
2019-03-13T09:28:20.272Z,25.90
2019-03-13T09:31:07.532Z,24.90
2019-03-13T09:33:52.744Z,24.60
2019-03-13T09:36:47.811Z,24.20
2019-03-13T09:39:42.346Z,24.20
2019-03-13T09:42:47.240Z,24.60
2019-03-13T09:45:55.008Z,24.10
2019-03-13T09:48:40.406Z,24.60
2019-03-13T09:51:28.953Z,25.50
2019-03-13T09:54:20.222Z,26.10
2019-03-13T09:57:24.153Z,25.10
2019-03-13T10:00:22.061Z,24.70
2019-03-13T10:03:19.808Z,26.20
2019-03-13T10:06:05.781Z,25.10
2019-03-13T10:09:09.612Z,27.10
2019-03-13T10:12:08.008Z,26.80
2019-03-13T10:14:55.476Z,25.90
2019-03-13T10:17:43.442Z,24.70
2019-03-13T10:20:47.513Z,27.10
2019-03-13T10:23:49.857Z,26.30
2019-03-13T10:26:47.309Z,26.00
2019-03-13T10:29:33.818Z,26.60
2019-03-13T10:32:26.476Z,29.50
2019-03-13T10:35:23.705Z,26.70
2019-03-13T10:38:16.875Z,30.10
2019-03-13T10:41:03.831Z,33.10
2019-03-13T10:44:01.393Z,33.80
2019-03-13T10:46:47.192Z,28.70
2019-03-13T10:49:44.330Z,31.80
2019-03-13T10:52:42.383Z,36.80
2019-03-13T10:55:26.323Z,37.30
2019-03-13T10:58:36.478Z,31.50
2019-03-13T11:01:29.152Z,32.60
2019-03-13T11:04:22.936Z,36.50
2019-03-13T11:07:23.746Z,37.60
2019-03-13T11:10:17.431Z,37.00
2019-03-13T11:13:07.936Z,33.70
2019-03-13T11:16:21.861Z,37.60
2019-03-13T11:19:13.832Z,34.90
2019-03-13T11:22:06.008Z,43.80
2019-03-13T11:24:49.351Z,44.10
2019-03-13T11:27:44.590Z,43.20
2019-03-13T11:30:49.238Z,46.90
2019-03-13T11:34:03.158Z,46.50
2019-03-13T11:37:01.394Z,49.10
2019-03-13T11:39:49.982Z,46.20
2019-03-13T11:42:42.630Z,47.60
2019-03-13T11:45:44.092Z,46.00
2019-03-13T11:48:44.843Z,50.60
2019-03-13T11:51:37.734Z,48.60
2019-03-13T11:54:34.806Z,48.70
2019-03-13T11:57:21.906Z,47.20
2019-03-13T12:00:08.673Z,47.10
2019-03-13T12:02:52.962Z,50.30
2019-03-13T12:05:37.681Z,45.50
2019-03-13T12:08:31.630Z,47.00
2019-03-13T12:11:15.103Z,46.40
2019-03-13T12:14:10.666Z,46.80
2019-03-13T12:17:14.937Z,51.70
2019-03-13T12:20:09.750Z,49.60
2019-03-13T12:23:15.985Z,46.40
2019-03-13T12:26:10.815Z,44.80
2019-03-13T12:29:04.064Z,48.30
2019-03-13T12:31:58.759Z,46.00
2019-03-13T12:34:51.735Z,48.90
2019-03-13T12:37:45.226Z,47.50
2019-03-13T12:40:56.062Z,47.20
2019-03-13T12:43:51.475Z,39.40
2019-03-13T12:46:35.498Z,47.70
2019-03-13T12:49:23.624Z,44.10
2019-03-13T12:52:31.894Z,44.00
2019-03-13T12:55:26.124Z,39.70
2019-03-13T12:58:20.236Z,41.90
2019-03-13T13:01:21.002Z,46.60
2019-03-13T13:04:15.486Z,44.80
2019-03-13T13:07:07.660Z,44.70
2019-03-13T13:10:13.577Z,42.60
2019-03-13T13:13:16.670Z,39.30
2019-03-13T13:16:12.096Z,42.70
2019-03-13T13:18:58.203Z,40.60
2019-03-13T13:21:35.565Z,48.20
2019-03-13T13:24:11.615Z,40.60
2019-03-13T13:26:50.383Z,40.40
2019-03-13T13:29:27.057Z,37.60
2019-03-13T13:32:03.812Z,37.90
2019-03-13T13:34:39.951Z,35.10
2019-03-13T13:37:16.869Z,38.90
2019-03-13T13:39:53.043Z,31.00
2019-03-13T13:42:29.565Z,32.10
2019-03-13T13:45:06.634Z,30.90
2019-03-13T13:47:43.302Z,31.30
2019-03-13T13:50:19.697Z,30.40
2019-03-13T13:52:56.776Z,31.10
2019-03-13T13:55:33.656Z,31.30
2019-03-13T13:58:10.540Z,35.00
2019-03-13T14:00:47.085Z,38.50
2019-03-13T14:03:24.715Z,36.50
2019-03-13T14:06:01.359Z,31.70
2019-03-13T14:08:38.235Z,34.30
2019-03-13T14:11:14.726Z,37.90
2019-03-13T14:13:51.215Z,35.60
2019-03-13T14:16:27.928Z,34.90
2019-03-13T14:19:04.622Z,34.50
2019-03-13T14:21:41.476Z,33.90
2019-03-13T14:24:17.999Z,31.10
2019-03-13T14:26:55.087Z,32.90
2019-03-13T14:29:31.518Z,35.40
2019-03-13T14:32:08.242Z,30.90
2019-03-13T14:34:45.757Z,31.90
2019-03-13T14:37:22.394Z,36.50
2019-03-13T14:40:16.853Z,35.70
2019-03-13T14:42:53.643Z,35.60
2019-03-13T14:45:30.408Z,31.30
2019-03-13T14:48:07.241Z,30.00
2019-03-13T14:50:43.921Z,33.60
2019-03-13T14:53:20.806Z,38.90
2019-03-13T14:55:57.977Z,33.60
2019-03-13T14:58:34.717Z,35.00
2019-03-13T15:01:11.619Z,34.80
2019-03-13T15:03:47.801Z,36.50
2019-03-13T15:06:24.660Z,32.20
2019-03-13T15:09:01.055Z,38.80
2019-03-13T15:11:39.552Z,40.00
2019-03-13T15:14:16.370Z,40.00
2019-03-13T15:16:53.496Z,40.30
2019-03-13T15:19:30.680Z,45.90
2019-03-13T15:22:07.853Z,45.10
2019-03-13T15:24:44.659Z,45.60
2019-03-13T15:27:21.074Z,46.20
2019-03-13T15:29:58.506Z,47.90
2019-03-13T15:32:35.176Z,50.60
2019-03-13T15:35:12.210Z,47.70
2019-03-13T15:37:48.843Z,50.30
2019-03-13T15:40:26.856Z,49.60
2019-03-13T15:43:06.507Z,50.40
2019-03-13T15:45:43.418Z,51.00
2019-03-13T15:48:19.794Z,53.50
2019-03-13T15:50:57.179Z,55.80
2019-03-13T15:53:33.875Z,56.50
2019-03-13T15:56:10.900Z,54.30
2019-03-13T15:58:47.789Z,52.90
2019-03-13T16:01:24.815Z,53.20
2019-03-13T16:04:01.517Z,56.60
2019-03-13T16:06:38.121Z,57.20
2019-03-13T16:09:15.058Z,57.10
2019-03-13T16:11:52.050Z,58.00
2019-03-13T16:14:29.164Z,48.90
2019-03-13T16:17:06.106Z,47.10
2019-03-13T16:19:42.419Z,51.10
2019-03-13T16:22:20.233Z,53.30
2019-03-13T16:24:56.391Z,59.20
2019-03-13T16:27:32.973Z,54.40
2019-03-13T16:30:11.428Z,52.10
2019-03-13T16:32:48.128Z,46.00
2019-03-13T16:35:26.463Z,48.60
2019-03-13T16:38:02.783Z,45.50
2019-03-13T16:40:39.334Z,45.70
2019-03-13T16:43:16.046Z,48.70
2019-03-13T16:45:52.629Z,44.70
2019-03-13T16:48:29.589Z,41.90
2019-03-13T16:51:07.248Z,44.90
2019-03-13T16:53:44.387Z,44.80
2019-03-13T16:56:21.261Z,43.30
2019-03-13T16:58:58.374Z,42.50
2019-03-13T17:01:35.093Z,45.80
2019-03-13T17:04:12.376Z,45.90
2019-03-13T17:06:48.851Z,44.10
2019-03-13T17:09:25.179Z,43.20
2019-03-13T17:12:01.866Z,47.30
2019-03-13T17:14:38.739Z,53.20
2019-03-13T17:17:15.305Z,50.30
2019-03-13T17:19:53.142Z,52.10
2019-03-13T17:22:30.013Z,47.90
2019-03-13T17:25:07.455Z,53.50
2019-03-13T17:27:44.966Z,49.20
2019-03-13T17:30:26.009Z,49.60
2019-03-13T17:33:03.403Z,55.40
2019-03-13T17:35:40.453Z,57.10
2019-03-13T17:38:17.144Z,50.30
2019-03-13T17:40:53.846Z,55.80
2019-03-13T17:43:39.012Z,59.70
2019-03-13T17:46:09.171Z,56.90
2019-03-13T17:48:46.207Z,56.50
2019-03-13T17:51:22.784Z,61.30
2019-03-13T17:53:59.362Z,57.40
2019-03-13T17:56:36.280Z,61.50
2019-03-13T17:59:13.486Z,59.50
2019-03-13T18:01:50.477Z,59.30
2019-03-13T18:04:27.187Z,61.10
2019-03-13T18:07:04.023Z,57.30
2019-03-13T18:09:40.451Z,66.00
2019-03-13T18:12:17.686Z,62.60
2019-03-13T18:14:54.405Z,68.80
2019-03-13T18:17:31.372Z,59.90
2019-03-13T18:20:09.492Z,65.20
2019-03-13T18:22:46.295Z,69.60
2019-03-13T18:25:22.688Z,68.60
2019-03-13T18:28:00.043Z,65.50
2019-03-13T18:30:36.683Z,65.60
2019-03-13T18:33:14.560Z,65.60
2019-03-13T18:35:51.355Z,67.70
2019-03-13T18:38:27.603Z,73.60
2019-03-13T18:41:04.546Z,64.30
2019-03-13T18:43:41.132Z,71.20
2019-03-13T18:46:17.978Z,65.90
2019-03-13T18:48:54.397Z,62.80
2019-03-13T18:51:31.328Z,68.50
2019-03-13T18:54:07.981Z,66.80
2019-03-13T18:56:45.000Z,68.00
2019-03-13T18:59:22.765Z,67.00
2019-03-13T19:01:59.416Z,69.50
2019-03-13T19:04:36.246Z,65.50
2019-03-13T19:07:12.960Z,68.70
2019-03-13T19:09:50.018Z,66.40
2019-03-13T19:12:26.881Z,70.20
2019-03-13T19:15:03.847Z,68.50
2019-03-13T19:17:40.783Z,69.40
2019-03-13T19:20:18.259Z,73.50
2019-03-13T19:22:56.158Z,72.80
2019-03-13T19:25:33.255Z,73.40
2019-03-13T19:28:10.030Z,72.50
2019-03-13T19:30:47.267Z,70.50
2019-03-13T19:33:25.199Z,71.60
2019-03-13T19:36:02.608Z,70.30
2019-03-13T19:38:41.235Z,73.40
2019-03-13T19:41:17.977Z,76.80
2019-03-13T19:43:54.562Z,75.70
2019-03-13T19:46:32.272Z,75.10
2019-03-13T19:49:09.095Z,75.20
2019-03-13T19:51:45.718Z,74.10
2019-03-13T19:54:22.677Z,72.10
2019-03-13T19:56:59.790Z,74.60
2019-03-13T19:59:37.227Z,75.50
2019-03-13T20:02:14.709Z,76.60
2019-03-13T20:04:51.736Z,76.60
2019-03-13T20:07:28.232Z,75.40
2019-03-13T20:10:06.249Z,76.90
2019-03-13T20:12:42.847Z,76.90
2019-03-13T20:15:21.089Z,75.80
2019-03-13T20:17:58.406Z,74.80
2019-03-13T20:20:34.614Z,75.80
2019-03-13T20:23:11.937Z,76.70
2019-03-13T20:25:49.289Z,78.50
2019-03-13T20:28:26.598Z,77.90
2019-03-13T20:31:03.416Z,78.60
2019-03-13T20:33:40.762Z,79.20
2019-03-13T20:36:17.658Z,79.40
2019-03-13T20:38:54.210Z,81.00
2019-03-13T20:41:31.178Z,80.40
2019-03-13T20:44:08.001Z,80.00
2019-03-13T20:46:45.095Z,79.90
2019-03-13T20:49:22.051Z,80.00
2019-03-13T20:51:58.786Z,81.50
2019-03-13T20:54:35.751Z,81.50
2019-03-13T20:57:12.494Z,80.60
2019-03-13T20:59:49.490Z,81.00
2019-03-13T21:02:26.618Z,80.90
2019-03-13T21:05:04.045Z,80.40
2019-03-13T21:07:41.907Z,79.90
2019-03-13T21:10:19.155Z,79.60
2019-03-13T21:12:56.782Z,81.10
2019-03-13T21:15:34.172Z,80.50
2019-03-13T21:18:10.958Z,81.40
2019-03-13T21:20:47.618Z,81.60
2019-03-13T21:23:24.359Z,79.90
2019-03-13T21:26:02.210Z,83.50
2019-03-13T21:28:39.275Z,82.60
2019-03-13T21:31:16.174Z,82.90
2019-03-13T21:33:52.965Z,83.00
2019-03-13T21:36:30.277Z,84.20
2019-03-13T21:39:08.019Z,86.20
2019-03-13T21:41:46.139Z,87.20
2019-03-13T21:44:22.841Z,85.60
2019-03-13T21:46:59.682Z,84.30
2019-03-13T21:49:36.154Z,85.80
2019-03-13T21:52:12.597Z,86.90
2019-03-13T21:54:51.953Z,86.70
2019-03-13T21:57:27.455Z,86.50
2019-03-13T22:00:03.784Z,85.80
2019-03-13T22:02:42.177Z,87.70
2019-03-13T22:05:25.679Z,88.50
2019-03-13T22:07:58.131Z,88.60
2019-03-13T22:10:34.805Z,86.90
2019-03-13T22:13:12.579Z,88.00
2019-03-13T22:15:49.165Z,88.00
2019-03-13T22:18:25.660Z,88.70
2019-03-13T22:21:02.357Z,88.50
2019-03-13T22:23:39.114Z,88.50
2019-03-13T22:26:16.089Z,87.10
2019-03-13T22:28:53.970Z,87.40
2019-03-13T22:31:30.454Z,87.30
2019-03-13T22:34:07.669Z,88.00
2019-03-13T22:36:44.706Z,88.50
2019-03-13T22:39:21.544Z,88.30
2019-03-13T22:41:58.364Z,89.00
2019-03-13T22:44:35.479Z,87.50
2019-03-13T22:47:12.295Z,87.20
2019-03-13T22:49:49.492Z,85.10
2019-03-13T22:52:25.973Z,86.50
2019-03-13T22:55:02.686Z,87.20
2019-03-13T22:57:39.455Z,88.00
2019-03-13T23:00:34.188Z,88.20
2019-03-13T23:03:11.880Z,88.20
2019-03-13T23:05:49.943Z,87.90
2019-03-13T23:08:26.599Z,86.60
2019-03-13T23:11:02.978Z,86.70
2019-03-13T23:13:39.906Z,87.80
2019-03-13T23:16:18.691Z,86.60
2019-03-13T23:18:55.869Z,86.40
2019-03-13T23:21:38.838Z,84.10
2019-03-13T23:24:15.629Z,83.50
2019-03-13T23:26:52.329Z,85.20
2019-03-13T23:29:29.226Z,86.90
2019-03-13T23:32:06.197Z,88.20
2019-03-13T23:34:42.792Z,88.00
2019-03-13T23:37:19.912Z,87.00
2019-03-13T23:39:56.479Z,87.40
2019-03-13T23:42:33.452Z,86.70
2019-03-13T23:45:10.501Z,86.80
2019-03-13T23:47:47.187Z,88.20
2019-03-13T23:50:25.042Z,87.40
2019-03-13T23:53:02.310Z,84.20
2019-03-13T23:55:39.199Z,87.80
2019-03-13T23:58:16.012Z,88.80
